Time;durP1;ratioP1;P1;durP2;ratioP2;P2;SDS_P1;SDS_P2;PMS_P1;PMS_P2;Temp;Humidity;BMP_temperature;BMP_pressure;BME280_temperature;BME280_humidity;BME280_pressure;Samples;Min_cycle;Max_cycle;Signal;HPM_P1;HPM_P2
2020/12/14 06:30:44;;;;;;;;;;;;;;;;;;;;;
2020/12/14 06:33:12;;;;;;;0.40;0.32;;;11.10;89.10;;;;;;4121579;27;20088;-86
2020/12/14 06:43:32;;;;;;;0.15;0.00;;;11.10;89.10;;;;;;4098933;27;20288;-89
2020/12/14 06:54:27;;;;;;;0.28;0.25;;;11.20;89.00;;;;;;4147171;27;20077;-90
2020/12/14 07:05:26;;;;;;;;;;;;;;;;;;;;;
2020/12/14 07:08:23;;;;;;;;;;;;;;;;;;;;;
2020/12/14 07:26:21;;;;;;;0.25;0.25;;;11.10;88.90;;;;;;4095653;27;20785;-90
2020/12/14 07:28:51;;;;;;;0.00;0.00;;;11.10;88.90;;;;;;4093605;34;20154;-89
2020/12/14 07:36:34;;;;;;;2.78;0.28;;;11.10;88.90;;;;;;4197341;27;20552;-90
2020/12/14 07:39:31;;;;;;;1.27;0.30;;;11.10;89.00;;;;;;4099537;34;20094;-89
2020/12/14 07:42:02;;;;;;;0.43;0.20;;;11.10;89.00;;;;;;4079553;34;20258;-88
2020/12/14 07:45:13;;;;;;;0.20;0.03;;;11.10;89.10;;;;;;4165514;27;20044;-90
2020/12/14 07:48:28;;;;;;;1.17;0.20;;;11.10;89.00;;;;;;4146379;27;20055;31
2020/12/14 07:51:17;;;;;;;0.00;0.00;;;11.10;88.90;;;;;;4157196;27;20205;-89
2020/12/14 08:00:37;;;;;;;0.20;0.05;;;11.10;89.00;;;;;;4111812;34;20114;-90
2020/12/14 08:12:23;;;;;;;0.73;0.22;;;11.40;88.80;;;;;;4115751;27;20079;-86
2020/12/14 08:14:52;;;;;;;0.00;0.00;;;11.80;87.60;;;;;;4121715;34;20074;-88
2020/12/14 08:17:35;;;;;;;0.85;0.50;;;12.20;86.60;;;;;;4133272;27;20079;-87
2020/12/14 08:20:09;;;;;;;0.32;0.10;;;12.60;85.70;;;;;;4135544;27;20090;-86
2020/12/14 08:22:35;;;;;;;0.00;0.00;;;12.80;85.00;;;;;;4111840;34;20426;-86
2020/12/14 08:25:07;;;;;;;0.10;0.00;;;13.00;84.80;;;;;;4140026;27;20078;-88
2020/12/14 08:27:55;;;;;;;0.22;0.00;;;13.30;84.60;;;;;;4120978;27;20070;-89
2020/12/14 08:30:25;;;;;;;2.90;0.20;;;13.50;84.40;;;;;;4135589;27;20110;-88
2020/12/14 08:33:11;;;;;;;0.98;0.22;;;13.40;84.40;;;;;;4129667;27;20082;-87
2020/12/14 08:35:41;;;;;;;0.28;0.20;;;13.40;84.70;;;;;;4128031;34;20067;-88
2020/12/14 08:38:15;;;;;;;0.63;0.20;;;13.40;84.90;;;;;;4123408;27;20077;-89
2020/12/14 08:40:56;;;;;;;0.08;0.00;;;13.50;85.10;;;;;;4119174;34;20446;-89
2020/12/14 08:43:29;;;;;;;0.95;0.22;;;13.50;85.20;;;;;;4119884;34;20106;-90
2020/12/14 08:46:28;;;;;;;0.32;0.10;;;13.50;85.30;;;;;;4117371;27;20427;-88
2020/12/14 08:48:59;;;;;;;0.65;0.32;;;13.50;85.30;;;;;;4131571;27;20074;-85
2020/12/14 08:51:26;;;;;;;;;;;13.60;85.20;;;;;;4121683;27;20352;-88
2020/12/14 08:53:54;;;;;;;0.52;0.10;;;13.60;85.40;;;;;;4134940;34;20318;-88
2020/12/14 08:56:22;;;;;;;0.57;0.10;;;13.40;85.70;;;;;;4130227;34;20428;-90
2020/12/14 08:58:58;;;;;;;0.20;0.10;;;13.20;86.30;;;;;;4132702;27;20106;-89
2020/12/14 09:01:33;;;;;;;0.30;0.10;;;13.30;86.60;;;;;;4124921;27;20362;-89
2020/12/14 09:04:01;;;;;;;0.20;0.00;;;13.20;86.60;;;;;;4123117;34;20082;-88
2020/12/14 09:06:34;;;;;;;1.08;0.17;;;13.30;86.80;;;;;;4138461;27;20244;-89
2020/12/14 09:09:11;;;;;;;7.03;0.47;;;13.10;87.00;;;;;;4132617;34;20078;-86
2020/12/14 09:11:44;;;;;;;0.00;0.00;;;13.10;87.20;;;;;;4124902;27;20422;-90
2020/12/14 09:14:10;;;;;;;4.55;0.50;;;13.00;87.40;;;;;;4143306;27;20079;-89
2020/12/14 09:16:37;;;;;;;0.25;0.10;;;12.90;87.50;;;;;;4117806;27;20058;-91
2020/12/14 09:19:49;;;;;;;;;;;;;;;;;;;;;
2020/12/14 09:25:12;;;;;;;0.10;0.03;;;12.40;88.80;;;;;;4116363;34;20082;-89
2020/12/14 09:27:39;;;;;;;1.67;0.25;;;12.20;89.30;;;;;;4128489;27;20600;-88
2020/12/14 09:30:11;;;;;;;0.00;0.00;;;12.10;89.80;;;;;;4106556;27;20101;-88
2020/12/14 09:32:37;;;;;;;13.00;0.47;;;12.00;89.90;;;;;;4207599;27;20504;-89
2020/12/14 09:35:13;;;;;;;0.35;0.13;;;11.90;90.00;;;;;;4097287;34;20078;-87
2020/12/14 09:37:39;;;;;;;0.68;0.15;;;11.80;90.10;;;;;;4142349;27;20066;-87
2020/12/14 09:40:32;;;;;;;1.13;0.22;;;11.70;90.20;;;;;;4186840;27;20293;31
2020/12/14 09:42:59;;;;;;;0.50;0.00;;;11.70;90.20;;;;;;4064169;35;20076;-88
2020/12/14 09:45:37;;;;;;;0.77;0.17;;;11.50;90.20;;;;;;4135694;27;20059;-88
2020/12/14 09:53:52;;;;;;;0.00;0.00;;;11.50;90.20;;;;;;4167974;27;20110;-88
2020/12/14 10:01:44;;;;;;;;;;;11.40;90.10;;;;;;4156661;27;20050;-89
2020/12/14 10:04:12;;;;;;;2.20;0.13;;;11.40;90.10;;;;;;4115726;34;19971;-89
2020/12/14 10:06:46;;;;;;;1.15;0.20;;;11.40;90.10;;;;;;4187448;27;20086;-88
2020/12/14 10:09:40;;;;;;;0.05;0.00;;;11.40;90.00;;;;;;4083378;35;20075;-87
2020/12/14 10:12:34;;;;;;;0.10;0.00;;;11.30;89.90;;;;;;4058793;35;20076;-88
2020/12/14 10:15:05;;;;;;;0.10;0.00;;;11.40;90.00;;;;;;4072394;35;20037;-89
2020/12/14 10:17:54;;;;;;;0.17;0.00;;;11.40;89.90;;;;;;4114092;27;20045;-88
2020/12/14 10:20:20;;;;;;;0.43;0.22;;;11.50;89.90;;;;;;4075648;35;20044;-89
2020/12/14 10:22:47;;;;;;;0.10;0.00;;;11.50;89.90;;;;;;4085655;34;20067;-87
2020/12/14 10:25:39;;;;;;;0.47;0.30;;;11.50;89.80;;;;;;4129460;27;20068;-87
2020/12/14 10:28:21;;;;;;;4.57;0.47;;;11.50;89.60;;;;;;4116256;27;20050;-87
2020/12/14 10:30:51;;;;;;;0.17;0.00;;;11.60;89.60;;;;;;4128702;28;20047;-89
2020/12/14 10:34:05;;;;;;;0.20;0.17;;;11.60;89.50;;;;;;4127426;34;20035;-90
2020/12/14 10:36:58;;;;;;;0.00;0.00;;;11.70;89.40;;;;;;4130504;34;20050;-88
2020/12/14 10:42:00;;;;;;;0.15;0.10;;;11.70;89.20;;;;;;4142367;34;20599;-90
2020/12/14 10:44:33;;;;;;;0.00;0.00;;;11.70;89.20;;;;;;4114501;34;20059;-90
2020/12/14 10:47:28;;;;;;;2.65;0.20;;;11.70;89.20;;;;;;4119164;27;20051;-89
2020/12/14 10:50:04;;;;;;;1.83;0.13;;;11.70;89.20;;;;;;4126488;27;20055;-90
2020/12/14 10:52:54;;;;;;;1.15;0.25;;;11.70;89.30;;;;;;4136025;27;20102;-89
2020/12/14 10:55:24;;;;;;;0.00;0.00;;;12.10;88.90;;;;;;4128649;34;20051;-89
2020/12/14 10:57:50;;;;;;;0.73;0.22;;;12.30;87.90;;;;;;4117904;34;20035;-89
2020/12/14 11:00:22;;;;;;;0.20;0.03;;;12.60;87.20;;;;;;4173044;27;20035;-87
2020/12/14 11:02:48;;;;;;;2.13;0.40;;;12.90;86.60;;;;;;4147471;27;20050;-89
2020/12/14 11:05:37;;;;;;;0.22;0.10;;;13.10;86.20;;;;;;4131902;34;20039;-89
2020/12/14 11:08:05;;;;;;;0.30;0.10;;;13.30;85.90;;;;;;4141490;34;20071;-89
2020/12/14 11:10:40;;;;;;;0.00;0.00;;;13.30;85.60;;;;;;4163175;27;20371;-88
2020/12/14 11:13:08;;;;;;;0.60;0.10;;;13.40;85.50;;;;;;4117580;34;20046;-90
2020/12/14 11:15:35;;;;;;;1.20;0.40;;;13.60;85.50;;;;;;4181590;27;20085;-90
2020/12/14 11:18:01;;;;;;;2.30;0.30;;;13.60;85.40;;;;;;4124970;27;20043;-89
2020/12/14 11:20:28;;;;;;;0.40;0.20;;;13.70;85.30;;;;;;4118417;27;20078;-89
2020/12/14 11:22:54;;;;;;;0.65;0.20;;;13.80;85.30;;;;;;4111458;35;20078;-89
2020/12/14 11:28:31;;;;;;;0.20;0.00;;;13.80;85.50;;;;;;4133052;27;20089;-89
2020/12/14 13:51:19;;;;;;;0.32;0.15;;;12.60;88.80;;;;;;4093565;27;20103;31
2020/12/14 13:54:05;;;;;;;;;;;12.60;88.80;;;;;;4100309;27;19972;-90
2020/12/14 14:47:12;;;;;;;0.00;0.00;;;12.50;89.30;;;;;;4110512;28;20071;-90
2020/12/14 14:50:01;;;;;;;0.03;0.00;;;12.50;89.30;;;;;;4088587;35;20079;-90
2020/12/14 14:52:34;;;;;;;0.00;0.00;;;12.50;89.30;;;;;;4086256;35;20079;-88
2020/12/14 14:55:53;;;;;;;;;;;;;;;;;;;;;
2020/12/14 15:15:13;;;;;;;0.10;0.00;;;12.40;89.50;;;;;;4129686;27;20497;-87
2020/12/14 15:20:36;;;;;;;0.30;0.20;;;12.40;89.60;;;;;;4125273;27;20070;-89
2020/12/14 15:23:11;;;;;;;0.00;0.00;;;12.30;89.50;;;;;;4108436;35;20078;-87
2020/12/14 15:25:39;;;;;;;0.10;0.00;;;12.30;89.60;;;;;;4094995;35;20454;-88
2020/12/14 15:28:55;;;;;;;0.00;0.00;;;12.30;89.60;;;;;;4100600;35;20062;-88
2020/12/14 15:35:52;;;;;;;;;;;;;;;;;;;;;
2020/12/14 15:43:34;;;;;;;0.95;0.15;;;12.20;89.70;;;;;;4138748;27;20106;-89
2020/12/14 15:46:01;;;;;;;0.17;0.05;;;12.20;89.70;;;;;;4172845;27;20082;-88
2020/12/14 15:48:33;;;;;;;1.05;0.17;;;12.20;89.70;;;;;;4160406;27;20066;-89
2020/12/14 15:51:22;;;;;;;1.08;0.30;;;12.20;89.70;;;;;;4151520;27;20070;-91
2020/12/14 15:53:54;;;;;;;0.75;0.20;;;12.20;89.70;;;;;;4131088;34;20210;-89
2020/12/14 15:56:34;;;;;;;3.55;0.15;;;12.20;89.70;;;;;;4117331;34;20042;-90
2020/12/14 16:01:39;;;;;;;0.25;0.10;;;12.20;89.80;;;;;;4125656;27;20383;-89
2020/12/14 16:04:05;;;;;;;0.00;0.00;;;12.20;89.80;;;;;;4130374;34;20042;-88
2020/12/14 16:06:35;;;;;;;1.17;0.20;;;12.20;89.80;;;;;;4128138;34;20074;-87
2020/12/14 16:09:01;;;;;;;0.10;0.10;;;12.20;89.90;;;;;;4117599;34;20066;-88
2020/12/14 16:11:28;;;;;;;1.38;0.10;;;12.20;89.90;;;;;;4106947;34;20035;-87
2020/12/14 16:13:54;;;;;;;0.52;0.28;;;12.20;89.90;;;;;;4106426;27;20058;-88
2020/12/14 16:16:23;;;;;;;0.95;0.20;;;12.20;89.90;;;;;;4140014;27;20383;-89
2020/12/14 16:18:49;;;;;;;2.50;0.60;;;12.10;89.90;;;;;;4146247;27;20508;-88
2020/12/14 16:21:19;;;;;;;1.73;0.30;;;12.10;89.90;;;;;;4111751;34;20079;-90
2020/12/14 16:24:01;;;;;;;2.38;0.40;;;12.10;90.00;;;;;;4130146;27;20055;-89
2020/12/14 16:26:27;;;;;;;0.25;0.10;;;12.10;90.00;;;;;;4109084;34;20441;-89
2020/12/14 16:28:57;;;;;;;2.13;0.77;;;12.10;90.00;;;;;;4118165;27;20098;-89
2020/12/14 16:31:26;;;;;;;1.30;0.55;;;12.10;90.00;;;;;;4127084;27;20077;-89
2020/12/14 16:34:07;;;;;;;0.28;0.10;;;12.10;90.00;;;;;;4102520;27;20466;-90
2020/12/14 16:36:43;;;;;;;0.10;0.10;;;12.00;90.00;;;;;;4111515;34;20449;-91
2020/12/14 16:39:09;;;;;;;0.80;0.28;;;12.00;90.00;;;;;;4097840;34;20089;-89
2020/12/14 16:42:03;;;;;;;0.10;0.00;;;12.00;90.00;;;;;;4108872;34;20469;-89
2020/12/14 16:44:42;;;;;;;1.02;0.15;;;12.00;90.10;;;;;;4118441;27;20109;-90
2020/12/14 16:47:08;;;;;;;1.60;0.30;;;12.00;90.10;;;;;;4110206;27;20067;-88
2020/12/14 16:49:35;;;;;;;0.00;0.00;;;11.90;90.10;;;;;;4099029;27;20071;-89
2020/12/14 16:52:05;;;;;;;0.10;0.00;;;11.90;90.10;;;;;;4105342;34;20098;-88
2020/12/14 16:57:43;;;;;;;;;;;;;;;;;;;;;
2020/12/14 17:00:42;;;;;;;1.05;0.30;;;11.90;90.20;;;;;;4122108;27;20087;-91
2020/12/14 17:07:37;;;;;;;4.40;1.30;;;11.80;90.20;;;;;;4066903;35;20080;-89
2020/12/14 17:10:33;;;;;;;0.57;0.50;;;11.80;90.20;;;;;;4067079;27;20115;-90
2020/12/14 17:13:48;;;;;;;0.90;0.50;;;11.80;90.20;;;;;;4109029;35;20139;-90
2020/12/14 17:28:58;;;;;;;0.70;0.25;;;11.70;90.20;;;;;;4134761;27;20082;-91
2020/12/14 17:31:35;;;;;;;;;;;;;;;;;;;;;
2020/12/14 17:40:48;;;;;;;0.28;0.10;;;11.60;90.10;;;;;;4120879;27;20497;-90
2020/12/14 17:48:32;;;;;;;0.00;0.00;;;11.70;90.20;;;;;;4160341;27;20385;-89
2020/12/14 17:51:08;;;;;;;0.10;0.00;;;11.70;90.20;;;;;;4135674;27;20343;-85
2020/12/14 17:53:35;;;;;;;0.13;0.00;;;11.70;90.20;;;;;;4133219;27;20086;-86
2020/12/14 17:56:01;;;;;;;0.63;0.22;;;11.70;90.20;;;;;;4128556;27;20075;-88
2020/12/14 17:58:27;;;;;;;0.00;0.00;;;11.70;90.20;;;;;;4112114;35;20063;-88
2020/12/14 18:03:33;;;;;;;0.57;0.20;;;11.70;90.20;;;;;;4166270;27;20191;-90
2020/12/14 18:06:15;;;;;;;9.45;0.38;;;11.60;90.20;;;;;;4095030;34;20082;-90
2020/12/14 18:08:44;;;;;;;0.20;0.03;;;11.70;90.20;;;;;;4080461;35;20514;-91
2020/12/14 18:14:44;;;;;;;0.28;0.08;;;11.60;90.20;;;;;;4040980;35;20108;-89
2020/12/14 18:17:13;;;;;;;0.00;0.00;;;11.60;90.20;;;;;;4090957;34;20117;-89
2020/12/14 18:19:45;;;;;;;0.00;0.00;;;11.60;90.20;;;;;;4117069;27;20079;-89
2020/12/14 18:22:15;;;;;;;0.03;0.00;;;11.60;90.20;;;;;;4083275;27;20367;-89
2020/12/14 18:25:09;;;;;;;0.38;0.22;;;11.60;90.20;;;;;;4121884;34;20082;-88
2020/12/14 18:27:38;;;;;;;0.00;0.00;;;11.50;90.10;;;;;;4132477;27;20079;-87
2020/12/14 18:30:13;;;;;;;0.00;0.00;;;11.60;90.20;;;;;;4129154;27;20038;-88
2020/12/14 18:48:36;;;;;;;0.32;0.17;;;11.50;90.10;;;;;;4120191;27;20082;-88
2020/12/14 19:49:41;;;;;;;1.63;0.38;;;11.30;90.20;;;;;;4096324;27;20079;-89
2020/12/14 21:26:39;;;;;;;0.13;0.00;;;11.10;90.10;;;;;;4101109;27;20162;-90
2020/12/14 21:29:24;;;;;;;;;;;;;;;;;;;;;
2020/12/14 21:32:07;;;;;;;0.00;0.00;;;11.10;90.10;;;;;;4109793;27;20070;-91
2020/12/14 21:34:51;;;;;;;1.85;0.22;;;11.10;90.20;;;;;;4094735;35;20075;-89
2020/12/14 21:37:17;;;;;;;0.30;0.10;;;11.10;90.20;;;;;;4111153;35;20749;-89
2020/12/14 21:39:47;;;;;;;4.30;0.30;;;11.10;90.20;;;;;;4120873;34;20082;-90
2020/12/14 21:42:22;;;;;;;0.17;0.03;;;11.10;90.20;;;;;;4123947;27;20093;-90
2020/12/14 21:45:34;;;;;;;0.75;0.32;;;11.10;90.20;;;;;;4121377;27;20379;-90
2020/12/14 21:48:03;;;;;;;9.55;0.35;;;11.10;90.20;;;;;;4121401;28;20047;-86
2020/12/14 21:50:36;;;;;;;0.05;0.00;;;11.10;90.20;;;;;;4113579;27;20078;-87
2020/12/14 21:53:20;;;;;;;1.25;0.28;;;11.10;90.20;;;;;;4097663;35;20078;-90
2020/12/14 21:55:59;;;;;;;0.00;0.00;;;11.10;90.20;;;;;;4111936;35;20198;-91
2020/12/14 21:58:33;;;;;;;0.20;0.10;;;11.20;90.20;;;;;;4092999;35;20086;-90
2020/12/14 22:01:38;;;;;;;0.43;0.13;;;11.20;90.20;;;;;;4097918;27;20083;-90
2020/12/14 22:04:10;;;;;;;0.52;0.20;;;11.10;90.20;;;;;;4097826;27;20404;-90
2020/12/14 22:06:36;;;;;;;0.00;0.00;;;11.20;90.20;;;;;;4099984;27;20079;-89
2020/12/14 22:09:26;;;;;;;0.20;0.10;;;11.20;90.20;;;;;;4116527;34;20075;-91
2020/12/14 22:12:01;;;;;;;14.35;0.28;;;11.10;90.20;;;;;;4124280;34;20062;-89
2020/12/14 22:14:31;;;;;;;0.13;0.10;;;11.10;90.30;;;;;;4129027;27;20082;-92
2020/12/14 22:17:06;;;;;;;0.10;0.03;;;11.10;90.30;;;;;;4128010;27;20054;-89
2020/12/14 22:19:45;;;;;;;0.08;0.00;;;11.10;90.30;;;;;;4138610;27;20078;-89
2020/12/14 22:22:12;;;;;;;0.22;0.20;;;11.10;90.30;;;;;;4108026;27;20075;-89
2020/12/14 22:24:44;;;;;;;0.13;0.10;;;11.10;90.30;;;;;;4105824;35;20086;-91
2020/12/14 22:27:16;;;;;;;0.30;0.20;;;11.10;90.30;;;;;;4094803;27;20095;-89
2020/12/14 22:29:52;;;;;;;0.88;0.10;;;11.10;90.30;;;;;;4092737;35;20091;-89
2020/12/14 22:32:24;;;;;;;2.97;0.40;;;11.10;90.30;;;;;;4094492;28;20067;-91
2020/12/14 22:34:57;;;;;;;1.50;0.55;;;11.10;90.30;;;;;;4097273;27;20076;-90
2020/12/14 22:37:29;;;;;;;0.20;0.10;;;11.10;90.40;;;;;;4103482;27;20619;-90
2020/12/14 22:40:02;;;;;;;1.23;0.40;;;11.10;90.30;;;;;;4094495;27;20589;-89
2020/12/14 22:42:28;;;;;;;4.95;0.77;;;11.10;90.30;;;;;;4094940;27;20071;-89
2020/12/14 22:44:55;;;;;;;0.38;0.28;;;11.10;90.30;;;;;;4099558;27;20079;-91
2020/12/14 22:47:21;;;;;;;0.50;0.20;;;11.10;90.30;;;;;;4086574;27;20466;-89
2020/12/14 22:49:53;;;;;;;0.10;0.03;;;11.10;90.30;;;;;;4092540;35;20060;-91
2020/12/14 22:52:20;;;;;;;1.83;0.40;;;11.10;90.30;;;;;;4096787;35;20095;-91
2020/12/14 22:54:46;;;;;;;0.35;0.00;;;11.20;90.30;;;;;;4073142;35;20091;-89
2020/12/14 22:57:12;;;;;;;13.23;1.67;;;11.10;90.30;;;;;;4103502;27;20062;-90
2020/12/14 22:59:39;;;;;;;7.78;1.60;;;11.10;90.30;;;;;;4098108;35;20090;-90
2020/12/14 23:02:05;;;;;;;6.05;0.90;;;11.10;90.30;;;;;;4098437;28;20414;-90
2020/12/14 23:04:31;;;;;;;0.60;0.17;;;11.20;90.30;;;;;;4096901;35;20152;-90
2020/12/14 23:06:58;;;;;;;0.17;0.10;;;11.10;90.30;;;;;;4096483;35;20083;-90
2020/12/14 23:09:24;;;;;;;0.00;0.00;;;11.10;90.30;;;;;;4096173;35;20087;-91
2020/12/14 23:11:50;;;;;;;0.10;0.00;;;11.10;90.30;;;;;;4083725;35;20125;-91
2020/12/14 23:14:17;;;;;;;0.32;0.08;;;11.10;90.30;;;;;;4093892;35;20086;-90
2020/12/14 23:16:49;;;;;;;0.20;0.10;;;11.10;90.30;;;;;;4092329;27;20115;-90
2020/12/14 23:19:21;;;;;;;0.93;0.20;;;11.10;90.40;;;;;;4083845;35;20497;-89
2020/12/14 23:21:48;;;;;;;0.30;0.15;;;11.10;90.40;;;;;;4109895;27;20086;-91
2020/12/14 23:24:14;;;;;;;0.00;0.00;;;11.10;90.40;;;;;;4098341;35;20074;-89
2020/12/14 23:26:41;;;;;;;0.00;0.00;;;11.00;90.40;;;;;;4137135;27;20398;-90
2020/12/14 23:29:07;;;;;;;0.52;0.22;;;11.10;90.40;;;;;;4110734;34;20070;-88
2020/12/14 23:31:43;;;;;;;0.20;0.10;;;11.10;90.40;;;;;;4118076;27;20090;-91
2020/12/14 23:34:09;;;;;;;0.00;0.00;;;11.10;90.40;;;;;;4126891;27;20078;-88
2020/12/14 23:36:36;;;;;;;0.20;0.00;;;11.10;90.40;;;;;;4109442;34;20079;-89
2020/12/14 23:39:02;;;;;;;2.40;0.15;;;11.00;90.40;;;;;;4127051;27;20078;-90
2020/12/14 23:41:32;;;;;;;0.10;0.00;;;11.10;90.40;;;;;;4131253;34;20075;-90
2020/12/14 23:43:58;;;;;;;0.00;0.00;;;11.10;90.40;;;;;;4124880;27;20090;-89
2020/12/14 23:46:28;;;;;;;0.00;0.00;;;11.10;90.40;;;;;;4107621;27;20078;-89
2020/12/14 23:49:04;;;;;;;0.00;0.00;;;11.10;90.50;;;;;;4119953;34;20395;-89
2020/12/14 23:51:31;;;;;;;0.05;0.00;;;11.10;90.40;;;;;;4128974;27;20109;-89
2020/12/14 23:53:57;;;;;;;0.10;0.10;;;11.00;90.40;;;;;;4117065;34;20073;-88
2020/12/14 23:56:27;;;;;;;0.30;0.13;;;11.10;90.50;;;;;;4106315;34;20074;-90
2020/12/14 23:58:53;;;;;;;1.38;0.20;;;11.10;90.40;;;;;;4117766;34;20097;-90
